Terminal Aerodrome Forecast
Issued by NWS

Home | Current Version | Previous Version | Text Only | Print | Product List | Glossary On
Versions: 1 2 3 4 5 6 7 8 9 10 11 12 13 14 15
000
FTUS45 KFGZ 211145
TAFPGA
TAF
KPGA 211145Z 2112/2212 VRB06KT P6SM SCT030 BKN060
      TEMPO 2112/2114 2SM -SHRA BR BKN029
     FM220100 26006KT P6SM FEW020 SCT250=

USA.gov is the U.S. government's official web portal to all federal, state and local government web resources and services.